Terminal Aerodrome Forecast
Issued by NWS

Home | Current Version | Previous Version | Text Only | Print | Product List | Glossary On
Versions: 1 2 3 4 5 6 7 8 9 10 11 12 13 14 15 16 17 18 19 20 21 22 23 24 25 26 27 28 29 30 31 32 33
000
FTUS45 KGJT 010535
TAFEGE
TAF
KEGE 010535Z 0106/0206 24007KT P6SM BKN060 OVC090
     FM011000 VRB04KT P6SM BKN040 OVC060
     FM011800 24010G18KT P6SM BKN060
     FM020100 27006KT P6SM SCT060
     FM020400 10004KT P6SM SCT060
      AMD LTD TO CLD VIS AND WIND TIL 011300=

USA.gov is the U.S. government's official web portal to all federal, state and local government web resources and services.